Time;durP1;ratioP1;P1;durP2;ratioP2;P2;SDS_P1;SDS_P2;PMS_P1;PMS_P2;Temp;Humidity;BMP_temperature;BMP_pressure;BME280_temperature;BME280_humidity;BME280_pressure;Samples;Min_cycle;Max_cycle;Signal;HPM_P1;HPM_P2
2022/05/08 00:02:23;;;;;;;13.60;6.13;;;12.60;99.90;;;;;;4960456;28;20048;-86
2022/05/08 00:04:52;;;;;;;12.45;5.65;;;12.60;99.90;;;;;;4956347;28;20031;-86
2022/05/08 00:07:19;;;;;;;13.25;6.28;;;12.50;99.90;;;;;;4959556;28;20072;-86
2022/05/08 00:09:45;;;;;;;9.85;5.53;;;12.50;99.90;;;;;;4959653;28;20031;-86
2022/05/08 00:12:11;;;;;;;13.35;6.00;;;12.50;99.90;;;;;;4960842;28;20440;-86
2022/05/08 00:14:37;;;;;;;11.68;5.85;;;12.50;99.90;;;;;;4954724;28;20038;-86
2022/05/08 00:17:03;;;;;;;9.32;5.68;;;12.40;99.90;;;;;;4959097;28;20031;-86
2022/05/08 00:19:28;;;;;;;8.95;5.75;;;12.40;99.90;;;;;;4957884;28;20034;-85
2022/05/08 00:21:54;;;;;;;12.93;5.90;;;12.40;99.90;;;;;;4951142;29;20077;-86
2022/05/08 00:24:19;;;;;;;14.40;6.97;;;12.30;99.90;;;;;;4959426;28;20023;-86
2022/05/08 00:26:45;;;;;;;12.20;7.07;;;12.30;99.90;;;;;;4960320;28;20022;-85
2022/05/08 00:29:11;;;;;;;13.05;7.38;;;12.20;99.90;;;;;;4956004;28;20035;-86
2022/05/08 00:31:36;;;;;;;12.80;7.90;;;12.10;99.90;;;;;;4958782;28;20023;-86
2022/05/08 00:34:03;;;;;;;13.63;7.40;;;12.10;99.90;;;;;;4956791;28;20029;-85
2022/05/08 00:36:28;;;;;;;16.33;7.60;;;12.10;99.90;;;;;;4955631;28;20031;-85
2022/05/08 00:38:55;;;;;;;13.90;7.75;;;12.00;99.90;;;;;;4958648;28;20509;-86
2022/05/08 00:41:21;;;;;;;11.07;6.78;;;12.00;99.90;;;;;;4957859;28;20023;-86
2022/05/08 00:43:46;;;;;;;13.98;7.53;;;12.00;99.90;;;;;;4957212;28;20033;-85
2022/05/08 00:46:13;;;;;;;14.25;7.55;;;11.90;99.90;;;;;;4955037;28;20026;-85
2022/05/08 00:48:41;;;;;;;16.73;8.00;;;11.80;99.90;;;;;;4975405;28;20030;-86
2022/05/08 00:51:12;;;;;;;12.60;7.32;;;11.80;99.90;;;;;;4957326;28;20030;-86
2022/05/08 00:53:40;;;;;;;16.13;8.23;;;11.70;99.90;;;;;;4947215;28;20057;-86
2022/05/08 00:56:07;;;;;;;14.20;8.35;;;11.70;99.90;;;;;;4957696;28;20042;-86
2022/05/08 00:58:39;;;;;;;17.40;8.80;;;11.60;99.90;;;;;;4965307;28;20023;-86
2022/05/08 01:01:06;;;;;;;16.08;8.45;;;11.60;99.90;;;;;;4974690;28;20030;-86
2022/05/08 01:03:32;;;;;;;13.57;7.82;;;11.60;99.90;;;;;;4974815;28;20058;-85
2022/05/08 01:06:02;;;;;;;14.27;7.97;;;11.50;99.90;;;;;;4958786;28;20034;-85
2022/05/08 01:08:28;;;;;;;24.25;8.75;;;11.50;99.90;;;;;;4959218;28;20386;-85
2022/05/08 01:10:54;;;;;;;13.63;7.70;;;11.50;99.90;;;;;;4959103;28;20027;-86
2022/05/08 01:13:19;;;;;;;13.18;6.47;;;11.50;99.90;;;;;;4954828;28;20086;-86
2022/05/08 01:15:47;;;;;;;15.13;8.90;;;11.50;99.90;;;;;;4958383;28;20074;-86
2022/05/08 01:18:14;;;;;;;14.73;8.35;;;11.50;99.90;;;;;;4958086;28;20490;-85
2022/05/08 01:20:41;;;;;;;16.52;8.13;;;11.40;99.90;;;;;;4955707;28;20085;-85
2022/05/08 01:23:08;;;;;;;14.20;7.15;;;11.40;99.90;;;;;;4956777;28;20062;-84
2022/05/08 01:25:34;;;;;;;18.55;8.32;;;11.40;99.90;;;;;;4957353;28;20031;-85
2022/05/08 01:28:03;;;;;;;16.55;8.52;;;11.40;99.90;;;;;;4971048;28;20030;-84
2022/05/08 01:30:29;;;;;;;15.13;7.85;;;11.40;99.90;;;;;;4957790;28;20554;-86
2022/05/08 01:32:57;;;;;;;19.23;7.60;;;11.30;99.90;;;;;;4949612;28;20126;-85
2022/05/08 01:35:24;;;;;;;20.17;7.63;;;11.30;99.90;;;;;;4957763;28;20039;-86
2022/05/08 01:37:49;;;;;;;16.15;8.10;;;11.30;99.90;;;;;;4957347;28;20027;-85
2022/05/08 01:40:17;;;;;;;16.17;6.88;;;11.20;99.90;;;;;;4954057;28;20054;-84
2022/05/08 01:42:43;;;;;;;14.70;7.25;;;11.20;99.90;;;;;;4955127;28;20030;-85
2022/05/08 01:45:10;;;;;;;12.65;6.93;;;11.20;99.90;;;;;;4956100;28;20035;-86
2022/05/08 01:50:19;;;;;;;16.67;6.13;;;11.10;99.90;;;;;;4972849;28;20100;-86
2022/05/08 01:52:45;;;;;;;16.83;6.22;;;11.10;99.90;;;;;;4958499;28;20555;-86
2022/05/08 01:55:10;;;;;;;13.85;5.55;;;11.10;99.90;;;;;;4957361;28;20085;-85
2022/05/08 01:57:36;;;;;;;13.30;4.85;;;11.10;99.90;;;;;;4958467;28;20499;-86
2022/05/08 02:00:02;;;;;;;16.90;5.30;;;11.00;99.90;;;;;;4957202;28;20053;-84
2022/05/08 02:02:27;;;;;;;15.63;5.25;;;11.00;99.90;;;;;;4960448;28;20026;-85
2022/05/08 02:04:53;;;;;;;15.88;5.30;;;11.00;99.90;;;;;;4950322;28;20027;-85
2022/05/08 02:07:19;;;;;;;18.55;5.20;;;11.00;99.90;;;;;;4948732;29;20055;-85
2022/05/08 02:09:45;;;;;;;11.88;3.92;;;11.00;99.90;;;;;;4951092;29;20035;-86
2022/05/08 02:12:11;;;;;;;17.10;4.68;;;11.00;99.90;;;;;;4958109;28;20452;-86
2022/05/08 02:14:37;;;;;;;11.35;4.60;;;11.00;99.90;;;;;;4957691;28;20073;-86
2022/05/08 02:17:04;;;;;;;22.13;6.00;;;10.90;99.90;;;;;;4957209;28;20035;-86
2022/05/08 02:19:29;;;;;;;21.77;5.35;;;10.90;99.90;;;;;;4957877;28;20091;-84
2022/05/08 02:21:55;;;;;;;14.52;4.97;;;10.90;99.90;;;;;;4948200;28;20500;-86
2022/05/08 02:24:20;;;;;;;18.88;5.57;;;10.80;99.90;;;;;;4958656;28;20023;-86
2022/05/08 02:26:46;;;;;;;20.55;5.88;;;10.80;99.90;;;;;;4953112;28;20028;-86
2022/05/08 02:29:11;;;;;;;19.23;5.60;;;10.80;99.90;;;;;;4956933;28;20034;-86
2022/05/08 02:31:37;;;;;;;29.98;5.22;;;10.80;99.90;;;;;;4957996;28;20063;-86
2022/05/08 02:34:02;;;;;;;23.67;6.25;;;10.80;99.90;;;;;;4957947;28;20395;-86
2022/05/08 02:36:28;;;;;;;20.60;4.97;;;10.80;99.90;;;;;;4968341;28;20097;-86
2022/05/08 02:38:53;;;;;;;19.45;5.95;;;10.80;99.90;;;;;;4954748;28;20105;-86
2022/05/08 02:41:19;;;;;;;24.50;5.55;;;10.70;99.90;;;;;;4966304;28;20118;-86
2022/05/08 02:43:44;;;;;;;22.48;5.88;;;10.70;99.90;;;;;;4957588;28;20027;-84
2022/05/08 02:46:10;;;;;;;21.50;4.70;;;10.70;99.90;;;;;;4962451;28;20046;-86
2022/05/08 02:48:35;;;;;;;19.33;4.05;;;10.70;99.90;;;;;;4971854;28;20390;-87
2022/05/08 02:51:01;;;;;;;20.98;4.72;;;10.60;99.90;;;;;;4963304;28;20458;-86
2022/05/08 02:53:26;;;;;;;15.75;3.58;;;10.60;99.90;;;;;;4956521;28;20094;-86
2022/05/08 02:58:36;;;;;;;22.58;3.78;;;10.50;99.90;;;;;;4961981;28;20034;-86
2022/05/08 03:01:06;;;;;;;13.68;2.95;;;10.50;99.90;;;;;;4953392;28;20031;-87
2022/05/08 03:03:32;;;;;;;20.85;4.30;;;10.50;99.90;;;;;;4957804;28;20419;-86
2022/05/08 03:05:58;;;;;;;20.25;3.53;;;10.50;99.90;;;;;;4956505;28;20027;-86
2022/05/08 03:08:23;;;;;;;18.50;3.25;;;10.50;99.90;;;;;;4954454;29;20507;-86
2022/05/08 03:13:38;;;;;;;19.70;3.92;;;10.40;99.90;;;;;;4973906;28;20038;-87
2022/05/08 03:16:06;;;;;;;18.42;3.00;;;10.40;99.90;;;;;;4956527;28;20074;-86
2022/05/08 03:18:32;;;;;;;22.08;3.55;;;10.40;99.90;;;;;;4957555;28;20482;-86
2022/05/08 03:20:58;;;;;;;20.83;3.85;;;10.40;99.90;;;;;;4956707;28;20494;-86
2022/05/08 03:23:23;;;;;;;20.02;3.42;;;10.30;99.90;;;;;;4957058;28;20026;-86
2022/05/08 03:25:50;;;;;;;20.42;3.40;;;10.30;99.90;;;;;;4951562;28;20035;-86
2022/05/08 03:28:15;;;;;;;28.92;3.28;;;10.30;99.90;;;;;;4942946;29;20026;-87
2022/05/08 03:30:42;;;;;;;22.70;3.90;;;10.30;99.90;;;;;;4952019;28;20030;-86
2022/05/08 03:33:09;;;;;;;20.08;3.28;;;10.20;99.90;;;;;;4958018;28;20090;-86
2022/05/08 03:35:36;;;;;;;19.15;3.22;;;10.20;99.90;;;;;;4957314;28;20039;-86
2022/05/08 03:38:02;;;;;;;18.10;2.95;;;10.20;99.90;;;;;;4955583;28;20027;-86
2022/05/08 03:40:27;;;;;;;21.65;3.63;;;10.20;99.90;;;;;;4949304;28;20058;-86
2022/05/08 03:42:54;;;;;;;22.17;3.35;;;10.20;99.90;;;;;;4973499;28;20065;-87
2022/05/08 03:45:20;;;;;;;18.13;2.22;;;10.20;99.90;;;;;;4961148;28;20023;-86
2022/05/08 03:47:48;;;;;;;15.23;2.35;;;10.20;99.90;;;;;;4958447;28;20068;-86
2022/05/08 03:50:14;;;;;;;25.90;2.78;;;10.10;99.90;;;;;;4976958;28;20050;-86
2022/05/08 03:52:39;;;;;;;24.25;3.40;;;10.10;99.90;;;;;;4977231;28;20446;-86
2022/05/08 03:55:05;;;;;;;17.42;3.20;;;10.10;99.90;;;;;;4961014;28;20129;-86
2022/05/08 03:57:31;;;;;;;17.58;2.50;;;10.00;99.90;;;;;;4959286;28;20015;-86
2022/05/08 03:59:56;;;;;;;19.15;3.20;;;10.00;99.90;;;;;;4977854;28;20090;-86
2022/05/08 04:02:22;;;;;;;22.60;2.90;;;9.90;99.90;;;;;;4956908;29;20023;-86
2022/05/08 04:04:47;;;;;;;21.90;3.40;;;9.90;99.90;;;;;;4952843;28;20029;-87
2022/05/08 04:07:13;;;;;;;20.73;3.50;;;9.90;99.90;;;;;;4955638;28;20479;-87
2022/05/08 04:09:39;;;;;;;23.75;3.80;;;9.90;99.90;;;;;;4955371;28;20075;-86
2022/05/08 04:12:05;;;;;;;16.23;2.85;;;9.80;99.90;;;;;;4958487;28;20023;-87
2022/05/08 04:14:30;;;;;;;23.90;2.40;;;9.90;99.90;;;;;;4952985;28;20061;-87
2022/05/08 04:16:56;;;;;;;18.02;2.78;;;9.80;99.90;;;;;;4959070;28;20027;-87
2022/05/08 04:19:21;;;;;;;27.50;2.47;;;9.70;99.90;;;;;;4959757;28;20467;-86
2022/05/08 04:21:47;;;;;;;12.70;2.00;;;9.70;99.90;;;;;;4959364;28;20041;-86
2022/05/08 04:24:18;;;;;;;22.27;2.80;;;9.70;99.90;;;;;;4960031;28;20026;-85
2022/05/08 04:26:45;;;;;;;17.83;2.17;;;9.70;99.90;;;;;;4958978;28;21712;-86
2022/05/08 04:29:11;;;;;;;31.50;4.20;;;9.70;99.90;;;;;;4955612;28;20027;-86
2022/05/08 04:31:37;;;;;;;15.40;1.88;;;9.60;99.90;;;;;;4958837;28;20157;-86
2022/05/08 04:34:03;;;;;;;15.07;2.20;;;9.60;99.90;;;;;;4960533;28;20030;-86
2022/05/08 04:36:29;;;;;;;21.77;2.83;;;9.60;99.90;;;;;;4958324;28;20035;-86
2022/05/08 04:38:55;;;;;;;18.95;2.25;;;9.60;99.90;;;;;;4950632;28;20574;-86
2022/05/08 04:41:20;;;;;;;12.80;2.38;;;9.50;99.90;;;;;;4956788;28;20027;-86
2022/05/08 04:43:46;;;;;;;18.73;2.63;;;9.50;99.90;;;;;;4958919;28;20089;-87
2022/05/08 04:46:11;;;;;;;24.70;2.95;;;9.50;99.90;;;;;;4958833;28;20031;-86
2022/05/08 04:48:38;;;;;;;22.67;3.10;;;9.50;99.90;;;;;;4959490;28;20037;-87
2022/05/08 04:51:04;;;;;;;20.17;2.78;;;9.50;99.90;;;;;;4959446;28;20053;-87
2022/05/08 04:53:30;;;;;;;15.68;2.40;;;9.60;99.90;;;;;;4959350;28;20026;-86
2022/05/08 04:55:56;;;;;;;17.60;2.90;;;9.50;99.90;;;;;;4952929;28;20039;-87
2022/05/08 04:58:22;;;;;;;15.75;2.38;;;9.50;99.90;;;;;;4953246;28;20042;-87
2022/05/08 05:00:48;;;;;;;18.70;2.95;;;9.50;99.90;;;;;;4954972;28;20027;-87
2022/05/08 05:03:13;;;;;;;25.35;3.30;;;9.50;99.90;;;;;;4970890;28;20023;-85
2022/05/08 05:05:39;;;;;;;23.10;3.10;;;9.50;99.90;;;;;;4957230;28;20397;-85
2022/05/08 05:08:06;;;;;;;18.98;2.70;;;9.50;99.90;;;;;;4958728;28;20037;-86
2022/05/08 05:10:31;;;;;;;18.65;1.95;;;9.50;99.90;;;;;;4952116;28;20395;-85
2022/05/08 05:12:57;;;;;;;18.63;3.13;;;9.40;99.90;;;;;;4947207;28;20015;-85
2022/05/08 05:15:24;;;;;;;19.55;2.40;;;9.40;99.90;;;;;;4959701;28;20031;-85
2022/05/08 05:17:52;;;;;;;18.27;2.60;;;9.40;99.90;;;;;;4959070;28;20500;-85
2022/05/08 05:20:18;;;;;;;28.95;3.15;;;9.40;99.90;;;;;;4957488;28;20054;-85
2022/05/08 05:22:43;;;;;;;22.25;2.25;;;9.40;99.90;;;;;;4959258;28;20438;-85
2022/05/08 05:25:09;;;;;;;17.75;2.42;;;9.40;99.90;;;;;;4958241;28;20098;-86
2022/05/08 05:27:35;;;;;;;18.67;2.53;;;9.40;99.90;;;;;;4958398;28;20023;-86
2022/05/08 05:30:03;;;;;;;13.82;2.20;;;9.50;99.90;;;;;;4948782;28;20043;-86
2022/05/08 05:32:28;;;;;;;13.18;2.15;;;9.70;99.90;;;;;;4949414;28;20031;-86
2022/05/08 05:34:54;;;;;;;12.75;2.10;;;10.00;99.90;;;;;;4954781;29;20154;-85
2022/05/08 05:37:20;;;;;;;17.67;2.63;;;10.20;99.90;;;;;;4954606;28;20014;-86
2022/05/08 05:39:45;;;;;;;19.65;2.70;;;10.40;99.90;;;;;;4954268;28;20125;-86
2022/05/08 05:42:11;;;;;;;17.30;2.13;;;10.60;99.90;;;;;;4953387;28;20033;-86
2022/05/08 05:44:37;;;;;;;25.67;3.58;;;10.60;99.90;;;;;;4950871;28;20066;-86
2022/05/08 05:49:47;;;;;;;16.83;2.13;;;10.80;99.90;;;;;;4976695;28;20038;-85
2022/05/08 05:52:12;;;;;;;23.27;3.13;;;10.90;99.90;;;;;;4956746;28;20023;-85
2022/05/08 05:54:38;;;;;;;20.15;2.42;;;10.90;99.90;;;;;;4953783;28;20539;-85
2022/05/08 05:57:03;;;;;;;18.55;3.15;;;11.10;99.90;;;;;;4956681;28;20115;-86
2022/05/08 05:59:30;;;;;;;25.60;2.83;;;11.20;99.90;;;;;;4956679;28;20401;-85
2022/05/08 06:01:55;;;;;;;18.45;1.88;;;11.30;99.90;;;;;;4957792;28;20086;-85
2022/05/08 06:04:21;;;;;;;14.68;2.08;;;11.30;99.90;;;;;;4974587;28;20438;-86
2022/05/08 06:06:47;;;;;;;18.73;2.78;;;11.40;99.90;;;;;;4957646;28;20134;-85
2022/05/08 06:09:12;;;;;;;13.15;2.47;;;11.30;99.90;;;;;;4953686;28;20066;-85
2022/05/08 06:11:38;;;;;;;17.60;3.40;;;11.30;99.90;;;;;;4958055;28;20027;-85
2022/05/08 06:14:03;;;;;;;19.50;2.25;;;11.30;99.90;;;;;;4958381;28;20034;-85
2022/05/08 06:16:31;;;;;;;20.15;2.72;;;11.30;99.90;;;;;;4958784;28;20027;-85
2022/05/08 06:18:57;;;;;;;20.25;2.80;;;11.30;99.90;;;;;;4946817;28;20065;-85
2022/05/08 06:21:23;;;;;;;19.45;2.30;;;11.30;99.90;;;;;;4953592;29;20031;-85
2022/05/08 06:23:48;;;;;;;16.98;2.70;;;11.30;99.90;;;;;;4954999;28;20063;-85
2022/05/08 06:26:15;;;;;;;19.33;2.10;;;11.40;99.90;;;;;;4954795;28;20719;-85
2022/05/08 06:28:41;;;;;;;14.25;1.38;;;11.40;99.90;;;;;;4972577;28;20073;-85
2022/05/08 06:31:07;;;;;;;16.60;2.40;;;11.40;99.90;;;;;;4959383;28;20063;-85
2022/05/08 06:33:32;;;;;;;18.95;2.22;;;11.50;99.90;;;;;;4973497;28;20034;-85
2022/05/08 06:35:58;;;;;;;21.77;2.55;;;11.60;99.90;;;;;;4955686;28;20053;-85
2022/05/08 06:38:24;;;;;;;15.80;2.05;;;11.60;99.90;;;;;;4952391;28;20057;-85
2022/05/08 06:40:49;;;;;;;17.17;2.42;;;11.70;99.90;;;;;;4948421;28;20035;-86
2022/05/08 06:43:15;;;;;;;17.15;1.95;;;11.80;99.90;;;;;;4971060;28;20456;-85
2022/05/08 06:45:40;;;;;;;19.85;1.92;;;11.70;99.90;;;;;;4948927;28;20495;-85
2022/05/08 06:48:06;;;;;;;18.98;2.03;;;11.70;99.90;;;;;;4968118;28;20031;-86
2022/05/08 06:50:33;;;;;;;11.88;1.52;;;11.70;99.90;;;;;;4957538;28;20038;-85
2022/05/08 06:52:59;;;;;;;14.52;2.00;;;11.70;99.90;;;;;;4958341;28;20026;-85
2022/05/08 06:55:24;;;;;;;16.52;1.80;;;11.80;99.90;;;;;;4957303;28;20038;-85
2022/05/08 06:57:50;;;;;;;20.92;1.92;;;11.90;99.90;;;;;;4954277;28;20023;-86
2022/05/08 07:03:03;;;;;;;17.58;1.98;;;12.10;99.90;;;;;;4962980;28;20522;-86
2022/05/08 07:05:29;;;;;;;22.90;2.42;;;12.20;99.90;;;;;;4956209;28;20057;-86
2022/05/08 07:07:54;;;;;;;19.65;2.15;;;12.20;99.90;;;;;;4957067;28;20113;-86
2022/05/08 07:10:20;;;;;;;17.25;1.60;;;12.30;99.90;;;;;;4957464;28;20397;-86
2022/05/08 07:12:46;;;;;;;13.75;1.70;;;12.50;99.90;;;;;;4957475;28;20030;-86
2022/05/08 07:15:11;;;;;;;14.13;1.23;;;12.60;99.90;;;;;;4955787;28;20049;-85
2022/05/08 07:17:37;;;;;;;14.05;1.50;;;12.70;99.90;;;;;;4954256;28;20054;-85
2022/05/08 07:20:03;;;;;;;16.85;1.52;;;12.70;99.90;;;;;;4973776;28;20034;-85
2022/05/08 07:22:30;;;;;;;11.40;1.40;;;12.60;99.90;;;;;;4960587;28;20022;-86
2022/05/08 07:24:55;;;;;;;18.92;1.60;;;12.60;99.90;;;;;;4960706;28;20027;-85
2022/05/08 07:27:21;;;;;;;20.80;2.10;;;12.60;99.30;;;;;;4978516;28;20093;-85
2022/05/08 07:29:46;;;;;;;18.52;1.42;;;12.50;99.50;;;;;;4961616;28;20026;-86
2022/05/08 07:32:12;;;;;;;18.40;1.80;;;12.60;99.60;;;;;;4977533;28;20070;-85
2022/05/08 07:37:22;;;;;;;12.07;1.50;;;12.70;99.40;;;;;;4977174;28;20041;-85
2022/05/08 07:39:47;;;;;;;20.40;1.73;;;12.80;98.90;;;;;;4949200;28;20141;-85
2022/05/08 07:42:13;;;;;;;7.78;0.93;;;12.80;98.50;;;;;;4957660;28;20098;-86
2022/05/08 07:44:38;;;;;;;11.52;1.67;;;12.80;97.70;;;;;;4953019;28;20339;-86
2022/05/08 07:47:04;;;;;;;12.82;1.45;;;12.70;97.60;;;;;;4955188;28;20122;-85
2022/05/08 07:49:30;;;;;;;13.80;1.48;;;12.80;97.50;;;;;;4956962;28;20030;-86
2022/05/08 07:51:55;;;;;;;10.05;1.08;;;12.70;96.80;;;;;;4953720;28;20043;-86
2022/05/08 07:54:21;;;;;;;14.10;1.42;;;12.70;96.90;;;;;;4953040;28;20046;-85
2022/05/08 07:56:46;;;;;;;10.82;1.00;;;12.90;96.90;;;;;;4958422;28;20127;-86
2022/05/08 07:59:12;;;;;;;10.38;1.60;;;12.80;96.40;;;;;;4955782;28;20019;-86
2022/05/08 08:01:38;;;;;;;16.35;1.55;;;12.80;96.70;;;;;;4953331;28;20105;-86
2022/05/08 08:04:08;;;;;;;9.88;1.00;;;12.80;96.60;;;;;;4953616;28;20030;-86
2022/05/08 08:06:34;;;;;;;11.38;1.30;;;12.90;96.60;;;;;;4953156;28;20130;-86
2022/05/08 08:09:00;;;;;;;15.90;1.40;;;13.10;96.50;;;;;;4958564;28;20109;-85
2022/05/08 08:11:25;;;;;;;12.25;1.15;;;13.20;96.10;;;;;;4953183;28;20033;-84
2022/05/08 08:13:51;;;;;;;12.38;1.25;;;13.30;95.90;;;;;;4956422;28;20042;-83
2022/05/08 08:16:17;;;;;;;12.90;1.60;;;13.30;95.10;;;;;;4958459;28;20035;-84
2022/05/08 08:18:44;;;;;;;8.77;0.80;;;13.40;95.10;;;;;;4957369;28;20029;-83
2022/05/08 08:21:14;;;;;;;10.27;0.90;;;13.40;95.40;;;;;;4967632;28;20027;-84
2022/05/08 08:23:41;;;;;;;12.48;1.20;;;13.50;94.80;;;;;;4961708;28;20109;-88
2022/05/08 08:26:09;;;;;;;15.07;1.25;;;13.60;94.70;;;;;;4957568;28;20406;-87
2022/05/08 08:28:34;;;;;;;11.93;1.45;;;13.60;94.40;;;;;;4954546;28;20023;-83
2022/05/08 08:31:00;;;;;;;8.60;1.10;;;13.70;94.20;;;;;;4952320;28;20035;-83
2022/05/08 08:33:26;;;;;;;11.73;1.30;;;13.70;94.00;;;;;;4948674;28;20050;-85
2022/05/08 08:35:55;;;;;;;7.93;1.25;;;13.70;94.30;;;;;;4955086;28;20483;-83
2022/05/08 08:38:21;;;;;;;10.77;1.20;;;13.80;94.50;;;;;;4957314;28;20030;-84
2022/05/08 08:40:49;;;;;;;12.57;1.20;;;14.00;93.80;;;;;;4955621;28;20061;-85
2022/05/08 08:43:19;;;;;;;9.55;1.15;;;14.00;93.80;;;;;;4952879;28;20398;-83
2022/05/08 08:48:31;;;;;;;7.80;0.95;;;14.30;93.60;;;;;;4962509;28;20049;-83
2022/05/08 08:50:58;;;;;;;7.90;0.90;;;14.30;93.60;;;;;;4950815;28;20034;-83
2022/05/08 08:53:25;;;;;;;11.05;1.38;;;14.40;93.70;;;;;;4958988;28;20563;-83
2022/05/08 08:55:51;;;;;;;10.63;1.77;;;14.40;93.10;;;;;;4945561;28;20039;-83
2022/05/08 08:58:17;;;;;;;15.30;2.08;;;14.50;93.10;;;;;;4956026;28;20026;-85
2022/05/08 09:00:46;;;;;;;10.80;1.45;;;14.50;92.30;;;;;;4955151;28;20022;-86
2022/05/08 09:03:12;;;;;;;6.03;1.23;;;14.50;92.00;;;;;;4956391;28;20023;-87
2022/05/08 09:05:38;;;;;;;7.45;0.95;;;14.50;91.90;;;;;;4957717;28;20493;-85
2022/05/08 09:08:04;;;;;;;6.45;1.38;;;14.60;91.10;;;;;;4952254;28;20471;-85
2022/05/08 09:10:35;;;;;;;11.18;1.00;;;14.70;90.70;;;;;;4955253;28;20038;-85
2022/05/08 09:13:07;;;;;;;8.88;1.67;;;14.70;90.40;;;;;;4950833;28;20019;-83
2022/05/08 09:15:37;;;;;;;9.68;1.08;;;14.70;90.20;;;;;;4954631;28;20122;-85
2022/05/08 09:18:10;;;;;;;14.27;1.40;;;14.60;89.80;;;;;;4949472;28;20031;-85
2022/05/08 09:20:51;;;;;;;9.40;1.25;;;14.60;89.20;;;;;;4948747;28;20518;-85
2022/05/08 09:23:21;;;;;;;8.10;0.75;;;14.70;89.10;;;;;;4949413;28;20482;-85
2022/05/08 09:25:57;;;;;;;13.75;1.20;;;14.70;90.00;;;;;;4969217;28;20371;-85
2022/05/08 09:28:31;;;;;;;7.25;0.95;;;14.80;88.50;;;;;;4949786;28;20598;-85
2022/05/08 09:31:05;;;;;;;7.10;1.38;;;14.90;88.70;;;;;;4949463;28;20053;-85
2022/05/08 09:33:39;;;;;;;12.63;1.83;;;15.10;88.90;;;;;;4948766;28;20027;-85
2022/05/08 09:36:10;;;;;;;10.50;1.20;;;15.20;88.70;;;;;;4945730;28;20043;-84
2022/05/08 09:38:48;;;;;;;8.95;1.17;;;15.30;87.00;;;;;;4944124;28;20032;-84
2022/05/08 09:41:28;;;;;;;7.78;1.00;;;15.30;86.80;;;;;;4946365;28;20023;-84
2022/05/08 09:44:08;;;;;;;7.55;0.80;;;15.30;87.50;;;;;;4948352;28;20058;-84
2022/05/08 09:46:44;;;;;;;10.23;1.00;;;15.50;86.50;;;;;;4946439;28;20044;-84
2022/05/08 09:49:12;;;;;;;10.60;1.08;;;15.50;85.00;;;;;;4947609;28;20060;-83
2022/05/08 09:51:40;;;;;;;12.82;1.98;;;15.50;83.90;;;;;;4947243;28;20102;-84
2022/05/08 09:54:06;;;;;;;6.70;0.82;;;15.50;84.00;;;;;;4945679;28;20034;-87
2022/05/08 09:56:34;;;;;;;10.77;1.25;;;15.50;84.60;;;;;;4948582;28;20042;-85
2022/05/08 09:59:00;;;;;;;9.57;1.15;;;15.60;83.30;;;;;;4950999;28;20027;-85
2022/05/08 10:01:26;;;;;;;6.10;0.88;;;15.60;83.70;;;;;;4946552;28;20032;-85
2022/05/08 10:03:52;;;;;;;7.65;1.13;;;15.70;83.50;;;;;;4950201;28;20062;-85
2022/05/08 10:06:18;;;;;;;9.65;1.08;;;15.80;80.70;;;;;;4949418;28;20019;-85
2022/05/08 10:08:45;;;;;;;8.63;1.95;;;15.70;79.20;;;;;;4945904;28;20050;-86
2022/05/08 10:14:03;;;;;;;5.97;1.02;;;15.80;79.50;;;;;;4943479;28;20034;-83
2022/05/08 10:17:00;;;;;;;10.02;1.00;;;15.90;79.80;;;;;;4945648;28;20694;-85
2022/05/08 10:19:25;;;;;;;7.38;1.20;;;16.20;79.90;;;;;;4943291;28;20035;-85
2022/05/08 10:21:57;;;;;;;8.70;0.82;;;16.20;78.40;;;;;;4943138;28;20399;-84
2022/05/08 10:24:32;;;;;;;7.35;0.65;;;16.20;78.80;;;;;;4964970;28;20031;-85
2022/05/08 10:27:11;;;;;;;9.10;1.02;;;16.20;78.90;;;;;;4947559;28;20038;-84
2022/05/08 10:29:40;;;;;;;7.10;0.80;;;16.30;77.40;;;;;;4942676;28;20063;-85
2022/05/08 10:32:06;;;;;;;5.88;1.20;;;16.30;77.60;;;;;;4941518;28;20090;-84
2022/05/08 10:34:37;;;;;;;15.02;1.55;;;16.50;77.70;;;;;;4951130;28;20031;-86
2022/05/08 10:37:12;;;;;;;11.37;1.07;;;16.60;77.80;;;;;;4947259;28;20027;-86
2022/05/08 10:39:42;;;;;;;9.55;0.85;;;16.70;75.40;;;;;;4947692;28;20122;-86
2022/05/08 10:42:42;;;;;;;10.27;1.38;;;16.60;75.80;;;;;;4946600;28;20034;-85
2022/05/08 10:45:34;;;;;;;10.15;0.80;;;16.70;74.70;;;;;;4944084;28;20047;-85
2022/05/08 10:48:21;;;;;;;9.00;1.30;;;16.70;74.40;;;;;;4946548;28;20046;-86
2022/05/08 10:50:54;;;;;;;10.88;1.67;;;16.70;73.30;;;;;;4946032;28;20060;-86
2022/05/08 10:53:32;;;;;;;6.20;0.70;;;16.70;73.30;;;;;;4952984;28;20031;-84
2022/05/08 10:56:06;;;;;;;7.85;1.17;;;16.70;72.30;;;;;;4947028;28;20051;-85
2022/05/08 10:58:33;;;;;;;9.25;0.98;;;16.70;72.10;;;;;;4946941;28;21510;-85
2022/05/08 11:01:03;;;;;;;7.93;1.42;;;16.80;72.80;;;;;;4946804;28;20526;-85
2022/05/08 11:03:29;;;;;;;6.65;0.90;;;17.00;73.00;;;;;;4946888;28;20379;-85
2022/05/08 11:05:55;;;;;;;6.88;0.65;;;17.20;72.50;;;;;;4950396;28;20494;-86
2022/05/08 11:08:28;;;;;;;8.45;1.52;;;17.30;72.30;;;;;;4951416;28;20038;-86
2022/05/08 11:11:03;;;;;;;8.65;1.25;;;17.40;72.90;;;;;;4948434;28;20032;-86
2022/05/08 11:13:43;;;;;;;6.88;0.80;;;17.60;72.70;;;;;;4950195;28;20027;-85
2022/05/08 11:16:09;;;;;;;10.15;1.08;;;17.70;71.10;;;;;;4948795;28;20056;-85
2022/05/08 11:18:35;;;;;;;8.32;1.05;;;17.60;69.00;;;;;;4952248;28;20019;-84
2022/05/08 11:21:02;;;;;;;10.15;1.00;;;17.50;69.10;;;;;;4951626;28;20031;-86
2022/05/08 11:23:30;;;;;;;12.73;2.10;;;17.50;67.70;;;;;;4941637;28;20031;-85
2022/05/08 11:26:05;;;;;;;8.30;1.13;;;17.40;67.80;;;;;;4950187;28;20027;-86
2022/05/08 11:28:32;;;;;;;5.05;0.60;;;17.40;68.70;;;;;;4946981;28;20086;-84
2022/05/08 11:30:59;;;;;;;7.20;1.08;;;17.50;67.40;;;;;;4949019;28;20027;-85
2022/05/08 11:36:25;;;;;;;7.28;1.05;;;17.60;65.50;;;;;;4949040;28;20074;-86
2022/05/08 11:38:59;;;;;;;6.93;0.93;;;17.60;65.70;;;;;;4953804;28;20499;-85
2022/05/08 11:41:36;;;;;;;9.70;1.25;;;17.60;66.10;;;;;;4951971;28;20105;-83
2022/05/08 11:44:17;;;;;;;5.15;1.05;;;17.70;65.60;;;;;;4954201;28;20054;-84
2022/05/08 11:46:55;;;;;;;6.72;1.10;;;17.70;65.60;;;;;;4955050;28;20031;-84
2022/05/08 11:49:31;;;;;;;8.15;0.75;;;17.80;65.90;;;;;;4955133;28;20073;-85
2022/05/08 11:52:02;;;;;;;8.63;0.68;;;17.80;65.60;;;;;;4954736;28;20035;-87
2022/05/08 11:54:37;;;;;;;4.65;0.55;;;17.80;65.40;;;;;;4960058;28;20170;-86
2022/05/08 11:57:19;;;;;;;8.50;0.98;;;17.90;65.70;;;;;;4954431;28;20030;-87
2022/05/08 12:00:05;;;;;;;6.28;0.75;;;18.00;65.00;;;;;;4955329;28;20431;-86
2022/05/08 12:02:39;;;;;;;7.55;0.73;;;18.10;65.60;;;;;;4958892;28;20110;-86
2022/05/08 12:05:05;;;;;;;7.05;0.70;;;18.20;65.30;;;;;;4957553;28;20030;-85
2022/05/08 12:07:41;;;;;;;5.70;0.70;;;18.40;64.80;;;;;;4951973;28;20035;-84
2022/05/08 12:10:09;;;;;;;7.90;1.08;;;18.30;63.70;;;;;;4952868;28;20482;-83
2022/05/08 12:12:37;;;;;;;4.93;0.60;;;18.30;64.40;;;;;;4947595;28;20391;-82
2022/05/08 12:15:06;;;;;;;9.82;0.90;;;18.30;65.10;;;;;;4947702;28;20137;-83
2022/05/08 12:17:53;;;;;;;7.53;1.08;;;18.50;64.40;;;;;;4958304;28;20031;-86
2022/05/08 12:20:25;;;;;;;6.95;0.95;;;18.50;62.90;;;;;;4950871;28;20491;-84
2022/05/08 12:23:07;;;;;;;4.20;0.55;;;18.40;63.20;;;;;;4970226;28;20027;-82
2022/05/08 12:25:34;;;;;;;11.07;1.03;;;18.50;63.40;;;;;;4951089;28;20121;-84
2022/05/08 12:28:00;;;;;;;5.97;0.60;;;18.60;62.60;;;;;;4950416;28;20285;-84
2022/05/08 12:30:25;;;;;;;7.55;0.80;;;18.50;61.70;;;;;;4963552;28;20023;-87
2022/05/08 12:32:51;;;;;;;7.00;0.70;;;18.40;62.80;;;;;;4956646;28;20081;-84
2022/05/08 12:35:18;;;;;;;6.80;0.77;;;18.50;62.80;;;;;;4957214;28;20039;-84
2022/05/08 12:37:46;;;;;;;2.97;0.60;;;18.60;62.40;;;;;;4952519;28;20031;-82
2022/05/08 12:40:11;;;;;;;5.22;0.60;;;18.50;61.00;;;;;;4948838;28;20047;-82
2022/05/08 12:42:38;;;;;;;4.35;0.40;;;18.50;59.70;;;;;;4953753;28;20039;-84
2022/05/08 12:45:04;;;;;;;3.83;0.40;;;18.50;60.40;;;;;;4951949;28;20030;-83
2022/05/08 12:47:29;;;;;;;3.90;0.50;;;18.60;60.30;;;;;;4950706;28;20042;-83
2022/05/08 12:49:55;;;;;;;4.28;0.50;;;18.60;60.00;;;;;;4953062;28;20054;-83
2022/05/08 12:52:21;;;;;;;4.25;0.50;;;18.70;60.40;;;;;;4948289;28;20027;-84
2022/05/08 12:54:47;;;;;;;5.72;0.70;;;18.80;59.60;;;;;;4954893;28;20498;-83
2022/05/08 12:59:42;;;;;;;4.28;0.60;;;18.90;58.30;;;;;;4951208;28;20074;-84
2022/05/08 12:59:59;;;;;;;4.95;0.90;;;18.90;58.60;;;;;;4965089;28;20402;-84
2022/05/08 13:02:26;;;;;;;4.28;0.45;;;19.00;59.00;;;;;;4952217;28;20092;-84
2022/05/08 13:04:52;;;;;;;6.60;0.90;;;19.10;59.50;;;;;;4951843;28;20031;-84
2022/05/08 13:07:18;;;;;;;3.95;0.40;;;19.10;57.70;;;;;;4948313;28;20077;-85
2022/05/08 13:09:44;;;;;;;4.57;0.80;;;19.00;57.90;;;;;;4948093;28;20050;-84